Time,TemperatureF,DewpointF,PressureIn,WindDirection,WindDirectionDegrees,WindSpeedMPH,WindSpeedGustMPH,Humidity,HourlyPrecipIn,Conditions,Clouds,dailyrainin,SoftwareType,DateUTC
2013-05-31 00:06:00,66.6,66.0,29.93,South,180,0.0,-999.0,98,-99.99,,,0.00,Acu-Link.com,2013-05-31 04:06:00,
2013-05-31 00:21:00,66.4,65.8,29.92,South,180,0.0,-999.0,98,-99.99,,,0.00,Acu-Link.com,2013-05-31 04:21:00,
2013-05-31 00:36:00,65.8,65.2,29.93,ESE,112,0.0,-999.0,98,-99.99,,,0.00,Acu-Link.com,2013-05-31 04:36:00,
2013-05-31 00:51:00,65.1,64.5,29.93,ESE,112,0.0,-999.0,98,-99.99,,,0.00,Acu-Link.com,2013-05-31 04:51:00,
2013-05-31 01:07:00,64.9,64.3,29.93,South,180,0.0,-999.0,98,-99.99,,,0.00,Acu-Link.com,2013-05-31 05:07:00,
2013-05-31 01:22:00,64.6,64.0,29.93,NW,315,0.0,-999.0,98,-99.99,,,0.00,Acu-Link.com,2013-05-31 05:22:00,
2013-05-31 01:37:00,64.0,63.4,29.93,SSE,157,0.0,-999.0,98,-99.99,,,0.00,Acu-Link.com,2013-05-31 05:37:00,
2013-05-31 02:08:00,63.5,62.9,29.92,South,180,0.0,-999.0,98,-99.99,,,0.00,Acu-Link.com,2013-05-31 06:08:00,
2013-05-31 02:23:00,63.1,62.5,29.92,South,180,0.0,-999.0,98,-99.99,,,0.00,Acu-Link.com,2013-05-31 06:23:00,
2013-05-31 02:38:00,62.8,62.2,29.91,South,180,0.0,-999.0,98,-99.99,,,0.00,Acu-Link.com,2013-05-31 06:38:00,
2013-05-31 02:54:00,62.2,61.6,29.91,West,270,0.0,-999.0,98,-99.99,,,0.00,Acu-Link.com,2013-05-31 06:54:00,
2013-05-31 03:10:00,61.9,61.3,29.91,NW,315,0.0,-999.0,98,-99.99,,,0.00,Acu-Link.com,2013-05-31 07:10:00,
2013-05-31 03:25:00,61.9,61.3,29.90,South,180,0.0,-999.0,98,-99.99,,,0.00,Acu-Link.com,2013-05-31 07:25:00,
2013-05-31 03:40:00,61.7,61.1,29.90,South,180,0.0,-999.0,98,-99.99,,,0.00,Acu-Link.com,2013-05-31 07:40:00,
2013-05-31 03:56:00,61.5,60.9,29.90,South,180,0.0,-999.0,98,-99.99,,,0.00,Acu-Link.com,2013-05-31 07:56:00,
2013-05-31 04:12:00,61.3,60.7,29.90,South,180,0.0,-999.0,98,-99.99,,,0.00,Acu-Link.com,2013-05-31 08:12:00,
2013-05-31 04:27:00,61.3,60.7,29.90,South,180,0.0,-999.0,98,-99.99,,,0.00,Acu-Link.com,2013-05-31 08:27:00,
2013-05-31 04:42:00,61.2,60.6,29.89,WNW,292,0.0,-999.0,98,-99.99,,,0.00,Acu-Link.com,2013-05-31 08:42:00,
2013-05-31 04:57:00,60.8,60.2,29.89,West,270,0.0,-999.0,98,-99.99,,,0.00,Acu-Link.com,2013-05-31 08:57:00,
2013-05-31 05:12:00,60.8,60.2,29.89,South,180,0.0,-999.0,98,-99.99,,,0.00,Acu-Link.com,2013-05-31 09:12:00,
2013-05-31 05:27:00,60.4,59.8,29.90,NNW,337,0.0,-999.0,98,-99.99,,,0.00,Acu-Link.com,2013-05-31 09:27:00,
2013-05-31 05:43:00,60.4,59.8,29.90,WNW,292,0.0,-999.0,98,-99.99,,,0.00,Acu-Link.com,2013-05-31 09:43:00,
2013-05-31 05:58:00,59.9,59.3,29.92,West,270,0.0,-999.0,98,-99.99,,,0.00,Acu-Link.com,2013-05-31 09:58:00,
2013-05-31 06:13:00,60.1,59.5,29.92,SSE,157,0.0,-999.0,98,-99.99,,,0.00,Acu-Link.com,2013-05-31 10:13:00,
2013-05-31 06:28:00,59.7,59.1,29.93,SSE,157,0.0,-999.0,98,-99.99,,,0.00,Acu-Link.com,2013-05-31 10:28:00,
2013-05-31 06:43:00,59.7,59.1,29.93,SSE,157,0.0,-999.0,98,-99.99,,,0.00,Acu-Link.com,2013-05-31 10:43:00,
2013-05-31 06:59:00,60.3,59.7,29.93,ESE,112,0.0,-999.0,98,-99.99,,,0.00,Acu-Link.com,2013-05-31 10:59:00,
2013-05-31 07:14:00,61.2,60.6,29.93,ENE,67,0.0,-999.0,98,-99.99,,,0.00,Acu-Link.com,2013-05-31 11:14:00,
2013-05-31 07:29:00,62.1,61.5,29.93,NW,315,0.0,-999.0,98,-99.99,,,0.00,Acu-Link.com,2013-05-31 11:29:00,
2013-05-31 07:44:00,62.8,62.2,29.94,NNE,22,0.0,-999.0,98,-99.99,,,0.00,Acu-Link.com,2013-05-31 11:44:00,
2013-05-31 08:00:00,64.4,63.8,29.95,NNW,337,0.0,-999.0,98,-99.99,,,0.00,Acu-Link.com,2013-05-31 12:00:00,
2013-05-31 08:15:00,66.0,65.4,29.94,NNW,337,0.0,-999.0,98,-99.99,,,0.00,Acu-Link.com,2013-05-31 12:15:00,
2013-05-31 08:30:00,68.7,68.1,29.94,ENE,67,0.0,-999.0,98,-99.99,,,0.00,Acu-Link.com,2013-05-31 12:30:00,
2013-05-31 08:46:00,70.2,69.6,29.93,WSW,247,0.0,-999.0,98,-99.99,,,0.00,Acu-Link.com,2013-05-31 12:46:00,
2013-05-31 09:01:00,71.4,70.8,29.94,SSW,202,2.2,-999.0,98,-99.99,,,0.00,Acu-Link.com,2013-05-31 13:01:00,
2013-05-31 09:16:00,73.0,70.9,29.94,West,270,4.7,-999.0,93,-99.99,,,0.00,Acu-Link.com,2013-05-31 13:16:00,
2013-05-31 09:31:00,73.9,69.1,29.94,South,180,1.7,-999.0,85,-99.99,,,0.00,Acu-Link.com,2013-05-31 13:31:00,
2013-05-31 09:47:00,75.0,70.5,29.93,WSW,247,1.1,-999.0,86,-99.99,,,0.00,Acu-Link.com,2013-05-31 13:47:00,
2013-05-31 10:02:00,75.7,70.2,29.93,SSW,202,0.0,-999.0,83,-99.99,,,0.00,Acu-Link.com,2013-05-31 14:02:00,
2013-05-31 10:17:00,77.2,70.5,29.92,WNW,292,2.7,-999.0,80,-99.99,,,0.00,Acu-Link.com,2013-05-31 14:17:00,
2013-05-31 10:32:00,78.1,71.0,29.92,South,180,2.2,-999.0,79,-99.99,,,0.00,Acu-Link.com,2013-05-31 14:32:00,
2013-05-31 10:47:00,79.2,71.0,29.92,SSE,157,1.7,-999.0,76,-99.99,,,0.00,Acu-Link.com,2013-05-31 14:47:00,
2013-05-31 11:03:00,81.1,69.9,29.92,NE,45,0.0,-999.0,69,-99.99,,,0.00,Acu-Link.com,2013-05-31 15:03:00,
2013-05-31 11:18:00,81.0,66.7,29.93,South,180,4.7,-999.0,62,-99.99,,,0.00,Acu-Link.com,2013-05-31 15:18:00,
2013-05-31 11:33:00,81.1,64.4,29.92,SSE,157,2.7,-999.0,57,-99.99,,,0.00,Acu-Link.com,2013-05-31 15:33:00,
2013-05-31 11:48:00,82.6,63.7,29.93,ESE,112,3.2,-999.0,53,-99.99,,,0.00,Acu-Link.com,2013-05-31 15:48:00,
2013-05-31 12:04:00,84.2,64.1,29.92,West,270,4.2,-999.0,51,-99.99,,,0.00,Acu-Link.com,2013-05-31 16:04:00,
2013-05-31 12:19:00,85.6,64.8,29.92,West,270,3.7,-999.0,50,-99.99,,,0.00,Acu-Link.com,2013-05-31 16:19:00,
2013-05-31 12:34:00,84.9,62.4,29.90,SE,135,3.7,-999.0,47,-99.99,,,0.00,Acu-Link.com,2013-05-31 16:34:00,
2013-05-31 12:49:00,84.4,61.3,29.90,ESE,112,3.7,-999.0,46,-99.99,,,0.00,Acu-Link.com,2013-05-31 16:49:00,
2013-05-31 13:04:00,85.6,62.4,29.89,NNE,22,1.1,-999.0,46,-99.99,,,0.00,Acu-Link.com,2013-05-31 17:04:00,
2013-05-31 13:20:00,86.2,61.7,29.89,SSE,157,1.7,-999.0,44,-99.99,,,0.00,Acu-Link.com,2013-05-31 17:20:00,
2013-05-31 13:35:00,89.8,61.5,29.87,SSE,157,2.7,-999.0,39,-99.99,,,0.00,Acu-Link.com,2013-05-31 17:35:00,
2013-05-31 13:51:00,90.3,61.2,29.87,SSE,157,1.7,-999.0,38,-99.99,,,0.00,Acu-Link.com,2013-05-31 17:51:00,
2013-05-31 14:06:00,91.9,62.6,29.85,SSE,157,2.7,-999.0,38,-99.99,,,0.00,Acu-Link.com,2013-05-31 18:06:00,
2013-05-31 14:21:00,91.9,60.3,29.84,NNW,337,2.7,-999.0,35,-99.99,,,0.00,Acu-Link.com,2013-05-31 18:21:00,
2013-05-31 14:36:00,92.3,59.0,29.84,SW,225,3.2,-999.0,33,-99.99,,,0.00,Acu-Link.com,2013-05-31 18:36:00,
2013-05-31 14:52:00,91.4,59.9,29.83,South,180,2.7,-999.0,35,-99.99,,,0.00,Acu-Link.com,2013-05-31 18:52:00,
2013-05-31 15:07:00,94.5,59.1,29.85,South,180,1.1,-999.0,31,-99.99,,,0.00,Acu-Link.com,2013-05-31 19:07:00,
2013-05-31 15:22:00,93.2,59.8,29.82,ESE,112,4.2,-999.0,33,-99.99,,,0.00,Acu-Link.com,2013-05-31 19:22:00,
2013-05-31 15:37:00,92.1,58.8,29.83,SSE,157,6.3,-999.0,33,-99.99,,,0.00,Acu-Link.com,2013-05-31 19:37:00,
2013-05-31 15:53:00,92.8,59.4,29.82,SE,135,3.2,-999.0,33,-99.99,,,0.00,Acu-Link.com,2013-05-31 19:53:00,
2013-05-31 16:08:00,93.0,61.3,29.82,NW,315,5.3,-999.0,35,-99.99,,,0.00,Acu-Link.com,2013-05-31 20:08:00,
2013-05-31 16:23:00,92.5,62.4,29.82,South,180,3.7,-999.0,37,-99.99,,,0.00,Acu-Link.com,2013-05-31 20:23:00,
2013-05-31 16:39:00,92.5,63.1,29.82,SSE,157,3.7,-999.0,38,-99.99,,,0.00,Acu-Link.com,2013-05-31 20:39:00,
2013-05-31 16:54:00,92.3,61.4,29.82,WNW,292,1.1,-999.0,36,-99.99,,,0.00,Acu-Link.com,2013-05-31 20:54:00,
2013-05-31 17:09:00,90.5,63.5,29.82,WNW,292,1.7,-999.0,41,-99.99,,,0.00,Acu-Link.com,2013-05-31 21:09:00,
2013-05-31 17:24:00,89.2,61.7,29.81,SSW,202,5.8,-999.0,40,-99.99,,,0.00,Acu-Link.com,2013-05-31 21:24:00,
2013-05-31 17:39:00,87.6,63.0,29.81,NNE,22,6.8,-999.0,44,-99.99,,,0.00,Acu-Link.com,2013-05-31 21:39:00,
2013-05-31 17:55:00,85.3,61.5,29.80,SW,225,6.3,-999.0,45,-99.99,,,0.00,Acu-Link.com,2013-05-31 21:55:00,
2013-05-31 18:10:00,84.7,61.0,29.80,South,180,4.7,-999.0,45,-99.99,,,0.00,Acu-Link.com,2013-05-31 22:10:00,
2013-05-31 18:25:00,83.8,61.4,29.80,SSW,202,3.7,-999.0,47,-99.99,,,0.00,Acu-Link.com,2013-05-31 22:25:00,
2013-05-31 18:40:00,83.5,61.7,29.81,SSW,202,2.7,-999.0,48,-99.99,,,0.00,Acu-Link.com,2013-05-31 22:40:00,
2013-05-31 18:55:00,83.3,61.5,29.80,SSE,157,3.2,-999.0,48,-99.99,,,0.00,Acu-Link.com,2013-05-31 22:55:00,
2013-05-31 19:11:00,82.8,61.7,29.81,South,180,1.7,-999.0,49,-99.99,,,0.00,Acu-Link.com,2013-05-31 23:11:00,
2013-05-31 19:26:00,82.6,64.2,29.81,North,0,0.0,-999.0,54,-99.99,,,0.00,Acu-Link.com,2013-05-31 23:26:00,
2013-05-31 19:41:00,81.1,64.9,29.81,SSE,157,0.0,-999.0,58,-99.99,,,0.00,Acu-Link.com,2013-05-31 23:41:00,
2013-05-31 19:57:00,81.1,64.4,29.81,SW,225,0.0,-999.0,57,-99.99,,,0.00,Acu-Link.com,2013-05-31 23:57:00,
2013-05-31 20:12:00,80.4,63.7,29.81,SSW,202,1.7,-999.0,57,-99.99,,,0.00,Acu-Link.com,2013-06-01 00:12:00,
2013-05-31 20:27:00,79.9,63.8,29.80,South,180,1.7,-999.0,58,-99.99,,,0.00,Acu-Link.com,2013-06-01 00:27:00,
2013-05-31 20:42:00,79.2,63.6,29.81,South,180,4.2,-999.0,59,-99.99,,,0.00,Acu-Link.com,2013-06-01 00:42:00,
2013-05-31 20:58:00,79.3,63.2,29.82,South,180,1.1,-999.0,58,-99.99,,,0.00,Acu-Link.com,2013-06-01 00:58:00,
2013-05-31 21:13:00,78.4,63.8,29.81,South,180,1.1,-999.0,61,-99.99,,,0.00,Acu-Link.com,2013-06-01 01:13:00,
2013-05-31 21:28:00,77.9,63.3,29.81,SSW,202,2.2,-999.0,61,-99.99,,,0.00,Acu-Link.com,2013-06-01 01:28:00,
2013-05-31 21:43:00,77.2,63.6,29.81,South,180,1.7,-999.0,63,-99.99,,,0.00,Acu-Link.com,2013-06-01 01:43:00,
2013-05-31 21:59:00,77.2,63.2,29.82,ESE,112,1.1,-999.0,62,-99.99,,,0.00,Acu-Link.com,2013-06-01 01:59:00,
2013-05-31 22:14:00,77.0,63.0,29.82,WSW,247,0.0,-999.0,62,-99.99,,,0.00,Acu-Link.com,2013-06-01 02:14:00,
2013-05-31 22:29:00,76.5,62.9,29.82,South,180,2.2,-999.0,63,-99.99,,,0.00,Acu-Link.com,2013-06-01 02:29:00,
2013-05-31 22:45:00,75.2,63.5,29.83,SSE,157,0.0,-999.0,67,-99.99,,,0.00,Acu-Link.com,2013-06-01 02:45:00,
2013-05-31 23:00:00,74.3,63.9,29.82,SSE,157,2.2,-999.0,70,-99.99,,,0.00,Acu-Link.com,2013-06-01 03:00:00,
2013-05-31 23:15:00,73.9,64.3,29.82,South,180,0.0,-999.0,72,-99.99,,,0.00,Acu-Link.com,2013-06-01 03:15:00,
2013-05-31 23:31:00,73.0,65.4,29.81,South,180,1.1,-999.0,77,-99.99,,,0.00,Acu-Link.com,2013-06-01 03:31:00,
2013-05-31 23:46:00,73.9,63.5,29.81,SE,135,0.0,-999.0,70,-99.99,,,0.00,Acu-Link.com,2013-06-01 03:46:00,